Colbrook, Connecticut
Current Conditions -  °F | °C
As of 10:53 AM on Wednesday 26 Nov 2014 (Local Time) from KBAF Reporting Station
Moderate Snow Moderate Snow  
Wind Chill: -3°   Ceiling: 800
Heat Index:   Visibility: 0.5mi
Dew Point: -1°   Wind: 7mph
Humidity: 92%   Direction: 350°N
Pressure: 30.14"   Gusts: NA
Location:  42.0286°N, 73.1037°W
Report Text: KBAF 261553Z 35006KT 1/2SM R20/3500V4000FT SN FG VV008 01/M01 A3014 RMK AO2 SLP212 P0012 T00061006
Loading
Personal Weather Stations






























Interactive Weather Map New forecast layout! Learn more

10-Day Weather Forecast

Advertisements
Track Severe Weather on mobile